sensor_id;sensor_type;location;lat;lon;timestamp;pressure;altitude;pressure_sealevel;temperature;humidity
34586;BME280;20816;50.950;11.108;2023-05-31T00:00:30;99216.03;;;10.57;97.77
34586;BME280;20816;50.950;11.108;2023-05-31T00:02:56;99204.72;;;10.54;98.27
34586;BME280;20816;50.950;11.108;2023-05-31T00:05:23;99212.63;;;10.51;98.68
34586;BME280;20816;50.950;11.108;2023-05-31T00:07:50;99213.53;;;10.48;97.69
34586;BME280;20816;50.950;11.108;2023-05-31T00:10:16;99212.69;;;10.45;97.47
34586;BME280;20816;50.950;11.108;2023-05-31T00:12:43;99217.19;;;10.36;98.34
34586;BME280;20816;50.950;11.108;2023-05-31T00:15:10;99216.28;;;10.37;98.57
34586;BME280;20816;50.950;11.108;2023-05-31T00:17:36;99221.59;;;10.34;98.78
34586;BME280;20816;50.950;11.108;2023-05-31T00:20:06;99214.56;;;10.33;97.85
34586;BME280;20816;50.950;11.108;2023-05-31T00:22:33;99214.56;;;10.33;98.56
34586;BME280;20816;50.950;11.108;2023-05-31T00:25:00;99222.44;;;10.35;98.29
34586;BME280;20816;50.950;11.108;2023-05-31T00:27:26;99218.13;;;10.29;97.69
34586;BME280;20816;50.950;11.108;2023-05-31T00:29:53;99212.91;;;10.26;98.38
34586;BME280;20816;50.950;11.108;2023-05-31T00:32:20;99221.63;;;10.28;97.81
34586;BME280;20816;50.950;11.108;2023-05-31T00:34:46;99216.41;;;10.25;97.47
34586;BME280;20816;50.950;11.108;2023-05-31T00:37:13;99219.09;;;10.19;96.30
34586;BME280;20816;50.950;11.108;2023-05-31T00:39:40;99222.69;;;10.10;97.62
34586;BME280;20816;50.950;11.108;2023-05-31T00:42:07;99225.34;;;10.06;97.80
34586;BME280;20816;50.950;11.108;2023-05-31T00:44:35;99222.75;;;10.00;98.11
34586;BME280;20816;50.950;11.108;2023-05-31T00:47:02;99221.94;;;9.95;97.74
34586;BME280;20816;50.950;11.108;2023-05-31T00:49:29;99220.22;;;9.94;98.45
34586;BME280;20816;50.950;11.108;2023-05-31T00:51:57;99229.75;;;9.99;98.49
34586;BME280;20816;50.950;11.108;2023-05-31T00:54:24;99223.66;;;9.99;98.37
34586;BME280;20816;50.950;11.108;2023-05-31T00:56:52;99226.34;;;9.91;99.41
34586;BME280;20816;50.950;11.108;2023-05-31T00:59:19;99230.72;;;9.91;99.57
34586;BME280;20816;50.950;11.108;2023-05-31T01:01:46;99236.00;;;9.88;99.80
34586;BME280;20816;50.950;11.108;2023-05-31T01:04:13;99222.03;;;9.86;99.62
34586;BME280;20816;50.950;11.108;2023-05-31T01:06:39;99216.88;;;9.73;99.20
34586;BME280;20816;50.950;11.108;2023-05-31T01:09:06;99222.09;;;9.76;100.00
34586;BME280;20816;50.950;11.108;2023-05-31T01:12:00;99220.41;;;9.72;100.00
34586;BME280;20816;50.950;11.108;2023-05-31T01:17:32;99224.81;;;9.66;99.22
34586;BME280;20816;50.950;11.108;2023-05-31T01:20:08;99223.91;;;9.68;99.93
34586;BME280;20816;50.950;11.108;2023-05-31T01:26:18;99216.97;;;9.64;99.39
34586;BME280;20816;50.950;11.108;2023-05-31T01:28:51;99216.16;;;9.56;100.00
34586;BME280;20816;50.950;11.108;2023-05-31T01:31:21;99218.78;;;9.56;100.00
34586;BME280;20816;50.950;11.108;2023-05-31T01:33:49;99220.47;;;9.60;100.00
34586;BME280;20816;50.950;11.108;2023-05-31T01:36:17;99217.84;;;9.63;100.00
34586;BME280;20816;50.950;11.108;2023-05-31T01:38:43;99222.19;;;9.66;100.00
34586;BME280;20816;50.950;11.108;2023-05-31T01:41:11;99224.84;;;9.63;100.00
34586;BME280;20816;50.950;11.108;2023-05-31T01:43:41;99218.72;;;9.64;100.00
34586;BME280;20816;50.950;11.108;2023-05-31T01:46:10;99220.44;;;9.65;100.00
34586;BME280;20816;50.950;11.108;2023-05-31T01:48:39;99222.25;;;9.61;100.00
34586;BME280;20816;50.950;11.108;2023-05-31T01:51:09;99229.25;;;9.58;100.00
34586;BME280;20816;50.950;11.108;2023-05-31T01:53:37;99225.81;;;9.51;100.00
34586;BME280;20816;50.950;11.108;2023-05-31T01:56:04;99230.19;;;9.50;100.00
34586;BME280;20816;50.950;11.108;2023-05-31T01:58:34;99237.22;;;9.44;100.00
34586;BME280;20816;50.950;11.108;2023-05-31T02:01:01;99229.44;;;9.32;100.00
34586;BME280;20816;50.950;11.108;2023-05-31T02:03:28;99230.31;;;9.32;100.00
34586;BME280;20816;50.950;11.108;2023-05-31T02:05:59;99231.28;;;9.20;100.00
34586;BME280;20816;50.950;11.108;2023-05-31T02:08:26;99230.44;;;9.14;100.00
34586;BME280;20816;50.950;11.108;2023-05-31T02:10:54;99230.44;;;9.14;100.00
34586;BME280;20816;50.950;11.108;2023-05-31T02:13:27;99235.69;;;9.12;100.00
34586;BME280;20816;50.950;11.108;2023-05-31T02:15:54;99227.81;;;9.14;100.00
34586;BME280;20816;50.950;11.108;2023-05-31T02:18:22;99223.44;;;9.16;100.00
34586;BME280;20816;50.950;11.108;2023-05-31T02:20:49;99226.88;;;9.19;100.00
34586;BME280;20816;50.950;11.108;2023-05-31T02:23:16;99231.31;;;9.14;100.00
34586;BME280;20816;50.950;11.108;2023-05-31T02:25:49;99232.19;;;9.09;100.00
34586;BME280;20816;50.950;11.108;2023-05-31T02:28:17;99239.16;;;9.16;100.00
34586;BME280;20816;50.950;11.108;2023-05-31T02:31:10;99233.03;;;9.15;100.00
34586;BME280;20816;50.950;11.108;2023-05-31T02:33:37;99238.25;;;9.21;100.00
34586;BME280;20816;50.950;11.108;2023-05-31T02:36:04;99236.47;;;9.26;100.00
34586;BME280;20816;50.950;11.108;2023-05-31T02:38:30;99238.19;;;9.31;100.00
34586;BME280;20816;50.950;11.108;2023-05-31T02:40:57;99232.91;;;9.37;100.00
34586;BME280;20816;50.950;11.108;2023-05-31T02:43:24;99234.63;;;9.41;100.00
34586;BME280;20816;50.950;11.108;2023-05-31T02:45:51;99229.38;;;9.41;100.00
34586;BME280;20816;50.950;11.108;2023-05-31T02:48:17;99232.94;;;9.31;100.00
34586;BME280;20816;50.950;11.108;2023-05-31T02:50:44;99241.72;;;9.30;100.00
34586;BME280;20816;50.950;11.108;2023-05-31T02:53:11;99233.00;;;9.21;100.00
34586;BME280;20816;50.950;11.108;2023-05-31T02:55:37;99229.50;;;9.19;100.00
34586;BME280;20816;50.950;11.108;2023-05-31T02:58:04;99230.50;;;9.02;100.00
34586;BME280;20816;50.950;11.108;2023-05-31T03:00:31;99231.41;;;8.96;100.00
34586;BME280;20816;50.950;11.108;2023-05-31T03:02:57;99229.66;;;8.95;100.00
34586;BME280;20816;50.950;11.108;2023-05-31T03:05:24;99224.41;;;8.95;100.00
34586;BME280;20816;50.950;11.108;2023-05-31T03:07:52;99230.53;;;8.98;100.00
34586;BME280;20816;50.950;11.108;2023-05-31T03:10:19;99228.75;;;9.02;100.00
34586;BME280;20816;50.950;11.108;2023-05-31T03:12:46;99234.88;;;9.01;100.00
34586;BME280;20816;50.950;11.108;2023-05-31T03:15:13;99231.38;;;9.02;100.00
34586;BME280;20816;50.950;11.108;2023-05-31T03:17:39;99237.50;;;9.04;100.00
34586;BME280;20816;50.950;11.108;2023-05-31T03:20:06;99241.81;;;9.08;100.00
34586;BME280;20816;50.950;11.108;2023-05-31T03:22:36;99227.81;;;9.09;100.00
34586;BME280;20816;50.950;11.108;2023-05-31T03:25:04;99234.88;;;9.04;100.00
34586;BME280;20816;50.950;11.108;2023-05-31T03:27:32;99239.28;;;8.97;100.00
34586;BME280;20816;50.950;11.108;2023-05-31T03:29:59;99233.16;;;8.97;100.00
34586;BME280;20816;50.950;11.108;2023-05-31T03:32:26;99230.50;;;9.00;100.00
34586;BME280;20816;50.950;11.108;2023-05-31T03:34:53;99233.09;;;9.06;100.00
34586;BME280;20816;50.950;11.108;2023-05-31T03:37:20;99239.28;;;8.97;100.00
34586;BME280;20816;50.950;11.108;2023-05-31T03:39:47;99238.44;;;8.88;100.00
34586;BME280;20816;50.950;11.108;2023-05-31T03:42:13;99247.28;;;8.65;100.00
34586;BME280;20816;50.950;11.108;2023-05-31T03:44:40;99246.44;;;8.57;100.00
34586;BME280;20816;50.950;11.108;2023-05-31T03:47:07;99249.03;;;8.60;100.00
34586;BME280;20816;50.950;11.108;2023-05-31T03:49:33;99241.97;;;8.76;100.00
34586;BME280;20816;50.950;11.108;2023-05-31T03:52:00;99236.69;;;8.90;100.00
34586;BME280;20816;50.950;11.108;2023-05-31T03:54:28;99234.84;;;9.07;100.00
34586;BME280;20816;50.950;11.108;2023-05-31T03:56:55;99236.56;;;9.11;100.00
34586;BME280;20816;50.950;11.108;2023-05-31T03:59:22;99235.66;;;9.17;100.00
34586;BME280;20816;50.950;11.108;2023-05-31T04:01:48;99237.41;;;9.12;100.00
34586;BME280;20816;50.950;11.108;2023-05-31T04:04:15;99238.31;;;9.14;100.00
34586;BME280;20816;50.950;11.108;2023-05-31T04:06:42;99240.00;;;9.19;100.00
34586;BME280;20816;50.950;11.108;2023-05-31T04:09:09;99241.72;;;9.26;100.00
34586;BME280;20816;50.950;11.108;2023-05-31T04:11:35;99236.44;;;9.33;100.00
34586;BME280;20816;50.950;11.108;2023-05-31T04:14:02;99244.31;;;9.28;100.00
34586;BME280;20816;50.950;11.108;2023-05-31T04:16:29;99243.44;;;9.31;100.00
34586;BME280;20816;50.950;11.108;2023-05-31T04:18:56;99245.97;;;9.43;100.00
34586;BME280;20816;50.950;11.108;2023-05-31T04:21:23;99251.13;;;9.58;100.00
34586;BME280;20816;50.950;11.108;2023-05-31T04:23:49;99244.88;;;9.74;100.00
34586;BME280;20816;50.950;11.108;2023-05-31T04:26:18;99246.56;;;9.81;100.00
34586;BME280;20816;50.950;11.108;2023-05-31T04:28:45;99256.13;;;9.90;100.00
34586;BME280;20816;50.950;11.108;2023-05-31T04:31:21;99253.38;;;10.04;100.00
34586;BME280;20816;50.950;11.108;2023-05-31T04:34:04;99252.31;;;10.25;100.00
34586;BME280;20816;50.950;11.108;2023-05-31T04:36:32;99252.16;;;10.40;100.00
34586;BME280;20816;50.950;11.108;2023-05-31T04:39:01;99254.59;;;10.57;100.00
34586;BME280;20816;50.950;11.108;2023-05-31T04:41:29;99249.09;;;10.80;99.86
34586;BME280;20816;50.950;11.108;2023-05-31T04:43:55;99246.22;;;10.98;99.94
34586;BME280;20816;50.950;11.108;2023-05-31T04:46:23;99239.84;;;11.16;98.64
34586;BME280;20816;50.950;11.108;2023-05-31T04:48:50;99251.84;;;11.35;98.96
34586;BME280;20816;50.950;11.108;2023-05-31T04:51:18;99248.94;;;11.54;97.74
34586;BME280;20816;50.950;11.108;2023-05-31T04:53:45;99247.66;;;11.79;96.51
34586;BME280;20816;50.950;11.108;2023-05-31T04:56:15;99248.16;;;12.02;96.08
34586;BME280;20816;50.950;11.108;2023-05-31T04:58:41;99250.44;;;12.24;94.65
34586;BME280;20816;50.950;11.108;2023-05-31T05:01:08;99250.81;;;12.50;93.44
34586;BME280;20816;50.950;11.108;2023-05-31T05:03:35;99239.59;;;12.84;91.47
34586;BME280;20816;50.950;11.108;2023-05-31T05:06:15;99245.13;;;13.13;90.07
34586;BME280;20816;50.950;11.108;2023-05-31T05:08:43;99237.59;;;13.37;88.94
34586;BME280;20816;50.950;11.108;2023-05-31T05:11:09;99246.66;;;13.64;88.06
34586;BME280;20816;50.950;11.108;2023-05-31T05:13:36;99241.53;;;13.92;86.64
34586;BME280;20816;50.950;11.108;2023-05-31T05:16:03;99246.44;;;14.07;85.32
34586;BME280;20816;50.950;11.108;2023-05-31T05:18:30;99243.59;;;14.49;84.81
34586;BME280;20816;50.950;11.108;2023-05-31T05:20:57;99242.88;;;14.76;83.90
34586;BME280;20816;50.950;11.108;2023-05-31T05:23:24;99244.59;;;14.77;83.43
34586;BME280;20816;50.950;11.108;2023-05-31T05:25:51;99252.47;;;15.10;82.56
34586;BME280;20816;50.950;11.108;2023-05-31T05:28:18;99252.34;;;15.42;80.06
34586;BME280;20816;50.950;11.108;2023-05-31T05:30:45;99248.34;;;15.29;78.99
34586;BME280;20816;50.950;11.108;2023-05-31T05:33:11;99253.00;;;15.51;78.55
34586;BME280;20816;50.950;11.108;2023-05-31T05:35:38;99254.16;;;15.70;77.91
34586;BME280;20816;50.950;11.108;2023-05-31T05:38:05;99256.63;;;16.03;78.15
34586;BME280;20816;50.950;11.108;2023-05-31T05:40:32;99259.38;;;16.51;75.69
34586;BME280;20816;50.950;11.108;2023-05-31T05:42:58;99256.13;;;16.68;74.82
34586;BME280;20816;50.950;11.108;2023-05-31T05:45:28;99255.84;;;17.00;74.31
34586;BME280;20816;50.950;11.108;2023-05-31T05:47:54;99257.19;;;17.12;72.96
34586;BME280;20816;50.950;11.108;2023-05-31T05:50:22;99257.56;;;17.25;71.66
34586;BME280;20816;50.950;11.108;2023-05-31T05:52:49;99245.84;;;17.30;73.15
34586;BME280;20816;50.950;11.108;2023-05-31T05:55:17;99251.56;;;17.43;72.96
34586;BME280;20816;50.950;11.108;2023-05-31T05:57:44;99257.97;;;17.83;72.01
34586;BME280;20816;50.950;11.108;2023-05-31T06:00:11;99252.94;;;17.97;70.52
34586;BME280;20816;50.950;11.108;2023-05-31T06:02:38;99255.25;;;18.27;68.92
34586;BME280;20816;50.950;11.108;2023-05-31T06:05:06;99256.53;;;18.59;68.77
34586;BME280;20816;50.950;11.108;2023-05-31T06:07:33;99252.88;;;18.41;68.16
34586;BME280;20816;50.950;11.108;2023-05-31T06:10:00;99261.25;;;18.93;67.21
34586;BME280;20816;50.950;11.108;2023-05-31T06:12:29;99257.22;;;19.03;67.24
34586;BME280;20816;50.950;11.108;2023-05-31T06:14:56;99265.09;;;19.06;65.39
34586;BME280;20816;50.950;11.108;2023-05-31T06:17:24;99266.34;;;19.55;65.72
34586;BME280;20816;50.950;11.108;2023-05-31T06:19:50;99265.75;;;19.49;63.82
34586;BME280;20816;50.950;11.108;2023-05-31T06:22:17;99271.44;;;19.79;62.75
34586;BME280;20816;50.950;11.108;2023-05-31T06:24:44;99265.09;;;19.81;62.68
34586;BME280;20816;50.950;11.108;2023-05-31T06:27:13;99262.94;;;20.07;63.23
34586;BME280;20816;50.950;11.108;2023-05-31T06:29:41;99264.25;;;20.52;61.83
34586;BME280;20816;50.950;11.108;2023-05-31T06:32:08;99263.31;;;20.70;61.82
34586;BME280;20816;50.950;11.108;2023-05-31T06:34:35;99265.53;;;20.62;60.37
34586;BME280;20816;50.950;11.108;2023-05-31T06:37:02;99266.94;;;20.69;60.76
34586;BME280;20816;50.950;11.108;2023-05-31T06:39:29;99270.97;;;20.76;60.31
34586;BME280;20816;50.950;11.108;2023-05-31T06:41:56;99267.88;;;21.01;59.53
34586;BME280;20816;50.950;11.108;2023-05-31T06:44:26;99280.56;;;20.80;60.49
34586;BME280;20816;50.950;11.108;2023-05-31T06:46:53;99275.13;;;20.99;59.24
34586;BME280;20816;50.950;11.108;2023-05-31T06:49:20;99261.59;;;21.35;59.03
34586;BME280;20816;50.950;11.108;2023-05-31T06:51:46;99269.22;;;20.92;60.75
34586;BME280;20816;50.950;11.108;2023-05-31T06:54:13;99259.56;;;21.23;60.48
34586;BME280;20816;50.950;11.108;2023-05-31T06:56:40;99261.78;;;21.64;59.27
34586;BME280;20816;50.950;11.108;2023-05-31T06:59:07;99260.50;;;22.32;57.28
34586;BME280;20816;50.950;11.108;2023-05-31T07:01:34;99249.13;;;21.97;55.82
34586;BME280;20816;50.950;11.108;2023-05-31T07:04:01;99255.63;;;21.93;55.41
34586;BME280;20816;50.950;11.108;2023-05-31T07:06:28;99255.78;;;21.90;55.33
34586;BME280;20816;50.950;11.108;2023-05-31T07:08:55;99253.13;;;21.90;55.34
34586;BME280;20816;50.950;11.108;2023-05-31T07:11:22;99260.91;;;21.63;55.96
34586;BME280;20816;50.950;11.108;2023-05-31T07:13:49;99263.75;;;21.44;57.46
34586;BME280;20816;50.950;11.108;2023-05-31T07:16:16;99261.25;;;21.57;58.74
34586;BME280;20816;50.950;11.108;2023-05-31T07:18:44;99257.78;;;22.02;57.72
34586;BME280;20816;50.950;11.108;2023-05-31T07:21:12;99254.88;;;21.91;57.88
34586;BME280;20816;50.950;11.108;2023-05-31T07:23:39;99249.16;;;22.43;57.94
34586;BME280;20816;50.950;11.108;2023-05-31T07:26:05;99253.75;;;22.55;57.39
34586;BME280;20816;50.950;11.108;2023-05-31T07:28:32;99249.84;;;22.91;56.33
34586;BME280;20816;50.950;11.108;2023-05-31T07:31:00;99251.84;;;23.02;56.15
34586;BME280;20816;50.950;11.108;2023-05-31T07:33:27;99245.63;;;23.01;54.11
34586;BME280;20816;50.950;11.108;2023-05-31T07:35:58;99238.72;;;22.97;56.33
34586;BME280;20816;50.950;11.108;2023-05-31T07:38:26;99243.19;;;22.97;56.94
34586;BME280;20816;50.950;11.108;2023-05-31T07:40:53;99239.66;;;23.25;55.79
34586;BME280;20816;50.950;11.108;2023-05-31T07:43:19;99235.91;;;23.41;54.81
34586;BME280;20816;50.950;11.108;2023-05-31T07:45:49;99234.25;;;23.67;54.57
34586;BME280;20816;50.950;11.108;2023-05-31T07:48:17;99231.41;;;24.37;53.48
34586;BME280;20816;50.950;11.108;2023-05-31T07:50:44;99224.47;;;24.20;53.42
34586;BME280;20816;50.950;11.108;2023-05-31T07:53:11;99233.41;;;24.33;53.48
34586;BME280;20816;50.950;11.108;2023-05-31T07:55:38;99227.66;;;24.25;53.53
34586;BME280;20816;50.950;11.108;2023-05-31T07:58:05;99229.00;;;24.32;53.55
34586;BME280;20816;50.950;11.108;2023-05-31T08:00:32;99224.88;;;24.79;52.43
34586;BME280;20816;50.950;11.108;2023-05-31T08:03:01;99215.59;;;24.05;52.24
34586;BME280;20816;50.950;11.108;2023-05-31T08:05:28;99227.97;;;24.48;52.24
34586;BME280;20816;50.950;11.108;2023-05-31T08:07:54;99220.25;;;25.07;52.24
34586;BME280;20816;50.950;11.108;2023-05-31T08:10:21;99220.97;;;24.83;52.64
34586;BME280;20816;50.950;11.108;2023-05-31T08:12:48;99215.41;;;25.12;53.17
34586;BME280;20816;50.950;11.108;2023-05-31T08:15:15;99217.56;;;24.94;52.82
34586;BME280;20816;50.950;11.108;2023-05-31T08:17:42;99219.63;;;25.03;52.34
34586;BME280;20816;50.950;11.108;2023-05-31T08:20:10;99219.88;;;24.35;53.10
34586;BME280;20816;50.950;11.108;2023-05-31T08:22:41;99213.34;;;24.39;51.88
34586;BME280;20816;50.950;11.108;2023-05-31T08:25:08;99213.38;;;24.52;51.60
34586;BME280;20816;50.950;11.108;2023-05-31T08:27:35;99210.75;;;24.38;52.31
34586;BME280;20816;50.950;11.108;2023-05-31T08:30:02;99208.81;;;24.40;52.90
34586;BME280;20816;50.950;11.108;2023-05-31T08:32:30;99202.19;;;25.09;50.54
34586;BME280;20816;50.950;11.108;2023-05-31T08:34:57;99206.59;;;24.84;51.79
34586;BME280;20816;50.950;11.108;2023-05-31T08:37:24;99194.22;;;24.95;51.73
34586;BME280;20816;50.950;11.108;2023-05-31T08:39:51;99198.63;;;25.58;49.05
34586;BME280;20816;50.950;11.108;2023-05-31T08:42:25;99192.22;;;25.71;49.16
34586;BME280;20816;50.950;11.108;2023-05-31T08:44:54;99199.41;;;26.19;47.88
34586;BME280;20816;50.950;11.108;2023-05-31T08:47:45;99206.78;;;26.28;49.16
34586;BME280;20816;50.950;11.108;2023-05-31T08:50:14;99201.50;;;26.62;48.38
34586;BME280;20816;50.950;11.108;2023-05-31T08:52:43;99202.06;;;25.60;46.63
34586;BME280;20816;50.950;11.108;2023-05-31T08:55:11;99190.94;;;26.12;46.13
34586;BME280;20816;50.950;11.108;2023-05-31T08:57:39;99189.94;;;26.13;47.56
34586;BME280;20816;50.950;11.108;2023-05-31T09:00:07;99187.44;;;26.23;48.17
34586;BME280;20816;50.950;11.108;2023-05-31T09:02:38;99193.78;;;26.57;48.36
34586;BME280;20816;50.950;11.108;2023-05-31T09:05:06;99189.25;;;26.69;47.96
34586;BME280;20816;50.950;11.108;2023-05-31T09:07:38;99194.22;;;27.08;46.93
34586;BME280;20816;50.950;11.108;2023-05-31T09:10:06;99185.84;;;27.00;45.56
34586;BME280;20816;50.950;11.108;2023-05-31T09:12:35;99184.81;;;26.45;48.25
34586;BME280;20816;50.950;11.108;2023-05-31T09:15:02;99181.69;;;26.74;46.46
34586;BME280;20816;50.950;11.108;2023-05-31T09:17:31;99180.22;;;26.23;46.90
34586;BME280;20816;50.950;11.108;2023-05-31T09:19:59;99175.19;;;25.71;47.20
34586;BME280;20816;50.950;11.108;2023-05-31T09:22:27;99170.66;;;25.95;46.38
34586;BME280;20816;50.950;11.108;2023-05-31T09:24:58;99175.28;;;25.82;47.00
34586;BME280;20816;50.950;11.108;2023-05-31T09:27:26;99178.72;;;26.66;45.26
34586;BME280;20816;50.950;11.108;2023-05-31T09:29:53;99165.00;;;26.80;43.99
34586;BME280;20816;50.950;11.108;2023-05-31T09:32:20;99174.28;;;26.42;44.86
34586;BME280;20816;50.950;11.108;2023-05-31T09:34:47;99169.63;;;26.44;44.84
34586;BME280;20816;50.950;11.108;2023-05-31T09:37:24;99162.06;;;26.83;45.22
34586;BME280;20816;50.950;11.108;2023-05-31T09:39:57;99169.16;;;26.50;45.44
34586;BME280;20816;50.950;11.108;2023-05-31T09:42:25;99164.34;;;26.54;43.51
34586;BME280;20816;50.950;11.108;2023-05-31T09:44:53;99152.75;;;26.30;44.36
34586;BME280;20816;50.950;11.108;2023-05-31T09:47:23;99148.88;;;26.34;45.25
34586;BME280;20816;50.950;11.108;2023-05-31T09:49:53;99159.72;;;26.56;43.37
34586;BME280;20816;50.950;11.108;2023-05-31T09:52:29;99148.69;;;27.81;42.67
34586;BME280;20816;50.950;11.108;2023-05-31T09:55:05;99148.69;;;27.81;43.56
34586;BME280;20816;50.950;11.108;2023-05-31T09:57:33;99152.53;;;27.13;43.54
34586;BME280;20816;50.950;11.108;2023-05-31T10:00:08;99155.44;;;26.76;44.08
34586;BME280;20816;50.950;11.108;2023-05-31T10:02:43;99139.25;;;27.21;43.18
34586;BME280;20816;50.950;11.108;2023-05-31T10:05:11;99141.09;;;26.98;44.09
34586;BME280;20816;50.950;11.108;2023-05-31T10:07:48;99138.50;;;26.40;43.35
34586;BME280;20816;50.950;11.108;2023-05-31T10:10:15;99124.16;;;26.85;42.87
34586;BME280;20816;50.950;11.108;2023-05-31T10:12:51;99129.81;;;26.93;43.29
34586;BME280;20816;50.950;11.108;2023-05-31T10:15:24;99131.88;;;26.78;42.75
34586;BME280;20816;50.950;11.108;2023-05-31T10:18:13;99132.16;;;26.97;42.92
34586;BME280;20816;50.950;11.108;2023-05-31T10:20:49;99136.28;;;27.35;42.48
34586;BME280;20816;50.950;11.108;2023-05-31T10:23:22;99137.75;;;27.82;42.69
34586;BME280;20816;50.950;11.108;2023-05-31T10:28:21;99132.78;;;27.55;42.24
34586;BME280;20816;50.950;11.108;2023-05-31T10:30:51;99118.91;;;27.05;42.99
34586;BME280;20816;50.950;11.108;2023-05-31T10:33:19;99133.88;;;27.21;42.96
34586;BME280;20816;50.950;11.108;2023-05-31T10:35:47;99128.69;;;27.18;42.47
34586;BME280;20816;50.950;11.108;2023-05-31T10:38:16;99114.28;;;27.83;42.78
34586;BME280;20816;50.950;11.108;2023-05-31T10:41:01;99120.63;;;27.93;42.94
34586;BME280;20816;50.950;11.108;2023-05-31T10:43:35;99115.47;;;27.90;42.43
34586;BME280;20816;50.950;11.108;2023-05-31T10:48:47;99108.88;;;28.25;40.99
34586;BME280;20816;50.950;11.108;2023-05-31T10:51:17;99115.31;;;27.59;41.71
34586;BME280;20816;50.950;11.108;2023-05-31T10:53:45;99105.78;;;27.44;42.12
34586;BME280;20816;50.950;11.108;2023-05-31T10:56:14;99099.75;;;26.97;42.47
34586;BME280;20816;50.950;11.108;2023-05-31T10:58:50;99105.50;;;27.26;41.97
34586;BME280;20816;50.950;11.108;2023-05-31T11:01:18;99107.81;;;27.31;42.81
34586;BME280;20816;50.950;11.108;2023-05-31T11:03:50;99105.25;;;27.18;42.38
34586;BME280;20816;50.950;11.108;2023-05-31T11:06:24;99097.03;;;27.20;42.43
34586;BME280;20816;50.950;11.108;2023-05-31T11:08:59;99099.94;;;27.39;42.57
34586;BME280;20816;50.950;11.108;2023-05-31T11:14:09;99095.47;;;27.06;43.18
34586;BME280;20816;50.950;11.108;2023-05-31T11:19:35;99096.84;;;26.67;43.86
34586;BME280;20816;50.950;11.108;2023-05-31T11:25:00;99099.84;;;27.93;42.90
34586;BME280;20816;50.950;11.108;2023-05-31T11:27:39;99100.47;;;27.97;41.24
34586;BME280;20816;50.950;11.108;2023-05-31T11:30:07;99083.31;;;27.55;41.73
34586;BME280;20816;50.950;11.108;2023-05-31T11:37:30;99070.53;;;27.02;42.71
34586;BME280;20816;50.950;11.108;2023-05-31T11:40:02;99072.47;;;27.34;42.14
34586;BME280;20816;50.950;11.108;2023-05-31T11:42:43;99072.09;;;27.59;42.26
34586;BME280;20816;50.950;11.108;2023-05-31T11:45:11;99081.34;;;27.89;41.62
34586;BME280;20816;50.950;11.108;2023-05-31T11:50:15;99063.59;;;28.38;41.20
34586;BME280;20816;50.950;11.108;2023-05-31T11:52:45;99053.97;;;28.45;40.99
34586;BME280;20816;50.950;11.108;2023-05-31T11:55:15;99058.44;;;28.65;41.18
34586;BME280;20816;50.950;11.108;2023-05-31T11:57:45;99060.75;;;28.70;41.09
34586;BME280;20816;50.950;11.108;2023-05-31T12:00:13;99060.31;;;27.60;43.26
34586;BME280;20816;50.950;11.108;2023-05-31T12:02:43;99054.44;;;28.08;41.30
34586;BME280;20816;50.950;11.108;2023-05-31T12:05:12;99057.31;;;28.16;41.91
34586;BME280;20816;50.950;11.108;2023-05-31T12:07:39;99055.56;;;28.57;41.05
34586;BME280;20816;50.950;11.108;2023-05-31T12:10:06;99053.19;;;28.12;41.58
34586;BME280;20816;50.950;11.108;2023-05-31T12:12:34;99051.00;;;28.06;40.24
34586;BME280;20816;50.950;11.108;2023-05-31T12:15:02;99053.91;;;27.73;41.06
34586;BME280;20816;50.950;11.108;2023-05-31T12:17:30;99045.13;;;28.01;41.33
34586;BME280;20816;50.950;11.108;2023-05-31T12:19:57;99049.28;;;27.63;42.91
34586;BME280;20816;50.950;11.108;2023-05-31T12:22:23;99044.91;;;27.51;42.81
34586;BME280;20816;50.950;11.108;2023-05-31T12:24:54;99042.53;;;27.37;42.56
34586;BME280;20816;50.950;11.108;2023-05-31T12:27:23;99044.03;;;27.19;43.00
34586;BME280;20816;50.950;11.108;2023-05-31T12:29:57;99040.09;;;27.87;42.07
34586;BME280;20816;50.950;11.108;2023-05-31T12:32:24;99035.72;;;27.75;42.54
34586;BME280;20816;50.950;11.108;2023-05-31T12:35:04;99040.56;;;27.60;42.44
34586;BME280;20816;50.950;11.108;2023-05-31T12:37:35;99035.50;;;26.91;42.77
34586;BME280;20816;50.950;11.108;2023-05-31T12:40:14;99033.72;;;27.56;42.11
34586;BME280;20816;50.950;11.108;2023-05-31T12:42:42;99028.34;;;28.18;41.92
34586;BME280;20816;50.950;11.108;2023-05-31T12:45:09;99029.53;;;27.84;42.40
34586;BME280;20816;50.950;11.108;2023-05-31T12:47:37;99030.84;;;27.69;42.29
34586;BME280;20816;50.950;11.108;2023-05-31T12:50:06;99020.72;;;28.33;42.49
34586;BME280;20816;50.950;11.108;2023-05-31T12:52:37;99026.63;;;28.48;41.75
34586;BME280;20816;50.950;11.108;2023-05-31T12:55:08;99012.88;;;28.61;41.08
34586;BME280;20816;50.950;11.108;2023-05-31T12:57:35;99031.72;;;27.90;42.38
34586;BME280;20816;50.950;11.108;2023-05-31T13:00:07;99020.63;;;27.93;42.46
34586;BME280;20816;50.950;11.108;2023-05-31T13:02:37;99021.66;;;27.60;43.06
34586;BME280;20816;50.950;11.108;2023-05-31T13:05:05;99030.41;;;27.52;42.43
34586;BME280;20816;50.950;11.108;2023-05-31T13:07:33;99031.78;;;27.47;42.15
34586;BME280;20816;50.950;11.108;2023-05-31T13:10:00;99016.81;;;27.75;40.79
34586;BME280;20816;50.950;11.108;2023-05-31T13:12:31;99030.94;;;27.14;42.23
34586;BME280;20816;50.950;11.108;2023-05-31T13:14:57;99016.78;;;27.86;41.72
34586;BME280;20816;50.950;11.108;2023-05-31T13:17:24;99010.66;;;27.93;41.64
34586;BME280;20816;50.950;11.108;2023-05-31T13:19:51;99018.94;;;27.39;42.84
34586;BME280;20816;50.950;11.108;2023-05-31T13:22:32;99009.34;;;27.14;42.90
34586;BME280;20816;50.950;11.108;2023-05-31T13:24:59;99008.50;;;27.14;43.13